.
WxDataArchive / Data Records for 2011-03-10
2011-03-09 March 2011 2011-03-11

Data Records for Thursday, 10 March 2011

Time	Temp	Chill	HIndex	Humid	Dewpt	 Wind 	HiWind	WindDir	Rain 	Barom 
-----	----	-----	------	-----	-----	------	------	-------	-----	----- 
00:00	44.5	44.5	44.5	95	43.2	2	6	270	0.00	29.814 
00:05	44.3	44.3	44.3	95	43.0	2	5	248	0.00	29.814 
00:10	44.2	44.2	44.2	95	42.9	1	4	248	0.00	29.814 
00:15	44.2	44.2	44.2	95	42.9	1	4	248	0.00	29.814 
00:20	44.1	44.1	44.1	95	42.8	1	4	248	0.00	29.814 
00:25	43.9	43.9	43.9	95	42.6	2	4	248	0.00	29.814 
00:30	43.9	43.9	43.9	95	42.6	0	2	248	0.00	29.821 
00:35	43.8	43.8	43.8	94	42.2	2	9	248	0.00	29.821 
00:40	43.8	43.8	43.8	94	42.2	1	5	248	0.00	29.821 
00:45	43.6	43.6	43.6	94	42.0	1	2	248	0.00	29.818 
00:50	43.6	43.6	43.6	94	42.0	0	3	248	0.00	29.818 
00:55	43.6	43.6	43.6	94	42.0	1	4	248	0.00	29.818 
01:00	43.6	43.6	43.6	94	42.0	1	3	248	0.00	29.825 
01:05	43.6	43.6	43.6	93	41.7	1	6	248	0.00	29.825 
01:10	43.6	43.6	43.6	93	41.7	2	7	248	0.00	29.825 
01:15	43.6	43.6	43.6	93	41.7	1	3	248	0.00	29.815 
01:20	43.6	43.6	43.6	93	41.7	2	8	248	0.00	29.815 
01:25	43.5	43.5	43.5	93	41.6	1	6	248	0.00	29.815 
01:30	43.3	43.3	43.3	92	41.1	2	6	248	0.00	29.823 
01:35	43.3	43.3	43.3	92	41.1	2	4	248	0.00	29.823 
01:40	43.2	43.2	43.2	92	41.0	2	4	248	0.00	29.823 
01:45	43.2	43.2	43.2	92	41.0	1	6	248	0.00	29.825 
01:50	43.2	43.2	43.2	92	41.0	1	4	248	0.00	29.825 
01:55	43.1	43.1	43.1	92	40.9	2	5	248	0.00	29.825 
02:00	43.1	43.1	43.1	92	40.9	2	6	248	0.00	29.825 
02:05	42.9	42.9	42.9	92	40.7	2	11	248	0.00	29.825 
02:10	42.9	42.9	42.9	92	40.7	1	2	248	0.00	29.825 
02:15	42.8	42.8	42.8	92	40.6	1	3	248	0.00	29.816 
02:20	42.8	42.8	42.8	92	40.6	0	4	248	0.00	29.816 
02:25	42.8	42.8	42.8	93	40.9	0	2	248	0.00	29.816 
02:30	42.8	42.8	42.8	93	40.9	0	2	248	0.00	29.814 
02:35	42.6	42.6	42.6	93	40.7	0	2	248	0.00	29.814 
02:40	42.6	42.6	42.6	93	40.7	0	3	248	0.00	29.814 
02:45	42.6	42.6	42.6	93	40.7	0	2	248	0.00	29.816 
02:50	42.6	42.6	42.6	93	40.7	0	3	248	0.00	29.816 
02:55	42.5	42.5	42.5	93	40.6	1	3	248	0.00	29.816 
03:00	42.5	42.5	42.5	94	40.9	1	3	248	0.00	29.811 
03:05	42.5	42.5	42.5	94	40.9	1	2	248	0.00	29.811 
03:10	42.2	42.2	42.2	94	40.6	2	4	248	0.00	29.811 
03:15	41.2	41.2	41.2	93	39.3	3	6	270	0.00	29.823 
03:20	40.6	40.6	40.6	93	38.7	2	4	248	0.00	29.823 
03:25	39.9	39.9	39.9	93	38.0	2	5	315	0.00	29.823 
03:30	39.3	39.3	39.3	93	37.4	2	4	315	0.00	29.832 
03:35	38.9	38.9	38.9	93	37.1	2	4	292	0.00	29.832 
03:40	38.6	38.6	38.6	93	36.8	2	4	315	0.00	29.832 
03:45	38.6	38.6	38.6	94	37.0	1	3	248	0.00	29.832 
03:50	38.3	38.3	38.3	94	36.7	1	2	315	0.00	29.832 
03:55	38.2	38.2	38.2	94	36.6	2	4	248	0.00	29.832 
04:00	37.9	37.9	37.9	94	36.3	2	4	270	0.00	29.839 
04:05	37.8	37.8	37.8	94	36.2	2	5	270	0.00	29.839 
04:10	37.6	37.6	37.6	94	36.0	2	3	270	0.00	29.839 
04:15	37.6	37.6	37.6	94	36.0	2	4	270	0.00	29.840 
04:20	37.5	37.5	37.5	94	35.9	2	4	270	0.00	29.840 
04:25	37.5	37.5	37.5	94	35.9	2	4	270	0.00	29.840 
04:30	37.5	37.5	37.5	94	35.9	1	3	270	0.00	29.842 
04:35	37.5	37.5	37.5	95	36.2	1	3	248	0.00	29.842 
04:40	37.3	37.3	37.3	95	36.0	2	3	248	0.00	29.842 
04:45	37.3	37.3	37.3	95	36.0	1	4	248	0.00	29.851 
04:50	37.2	37.2	37.2	95	35.9	1	4	270	0.00	29.851 
04:55	37.2	37.2	37.2	95	35.9	1	3	248	0.00	29.851 
05:00	37.0	37.0	37.0	95	35.7	2	5	248	0.00	29.860 
05:05	37.0	37.0	37.0	95	35.7	2	7	248	0.00	29.860 
05:10	37.0	37.0	37.0	95	35.7	2	5	248	0.00	29.860 
05:15	36.9	36.9	36.9	95	35.6	1	5	248	0.00	29.860 
05:20	36.9	36.9	36.9	95	35.6	2	5	248	0.00	29.860 
05:25	36.8	36.8	36.8	95	35.5	2	5	292	0.00	29.860 
05:30	36.6	36.6	36.6	95	35.3	3	5	270	0.00	29.850 
05:35	36.6	36.6	36.6	95	35.3	3	5	248	0.00	29.850 
05:40	36.5	36.5	36.5	95	35.2	2	5	248	0.00	29.850 
05:45	36.5	36.5	36.5	95	35.2	2	4	248	0.00	29.861 
05:50	36.5	36.5	36.5	95	35.2	2	4	270	0.00	29.861 
05:55	36.3	36.3	36.3	94	34.7	2	4	248	0.00	29.861 
06:00	36.2	36.2	36.2	94	34.6	2	6	270	0.00	29.863 
06:05	35.9	35.9	35.9	94	34.3	3	6	270	0.00	29.863 
06:10	35.9	35.9	35.9	94	34.3	2	5	270	0.00	29.863 
06:15	35.8	35.8	35.8	94	34.2	3	6	248	0.00	29.854 
06:20	35.6	35.6	35.6	94	34.0	3	6	270	0.00	29.854 
06:25	35.5	35.5	35.5	94	33.9	3	5	270	0.00	29.854 
06:30	35.3	35.3	35.3	94	33.7	2	6	315	0.00	29.857 
06:35	35.3	35.3	35.3	94	33.7	3	5	248	0.00	29.857 
06:40	35.2	35.2	35.2	94	33.6	2	5	270	0.00	29.857 
06:45	35.2	35.2	35.2	94	33.6	3	6	292	0.00	29.848 
06:50	35.2	35.2	35.2	94	33.6	3	7	315	0.00	29.848 
06:55	35.2	35.2	35.2	94	33.6	1	4	315	0.00	29.848 
07:00	35.2	35.2	35.2	94	33.6	2	5	270	0.00	29.865 
07:05	35.0	35.0	35.0	94	33.5	2	5	248	0.00	29.865 
07:10	35.0	35.0	35.0	93	33.2	2	4	270	0.00	29.865 
07:15	35.0	35.0	35.0	93	33.2	2	5	315	0.00	29.881 
07:20	34.9	34.9	34.9	93	33.1	3	6	315	0.00	29.881 
07:25	34.9	34.9	34.9	93	33.1	2	4	292	0.00	29.881 
07:30	34.9	34.9	34.9	93	33.1	2	5	270	0.00	29.881 
07:35	34.9	34.9	34.9	93	33.1	2	3	292	0.00	29.881 
07:40	34.9	34.9	34.9	93	33.1	1	4	248	0.00	29.881 
07:45	34.9	34.9	34.9	93	33.1	1	4	270	0.00	29.883 
07:50	34.9	34.9	34.9	93	33.1	1	3	270	0.00	29.883 
07:55	34.9	34.9	34.9	93	33.1	2	5	292	0.00	29.883 
08:00	34.9	34.9	34.9	93	33.1	2	9	270	0.00	29.869 
08:05	34.7	34.7	34.7	93	32.9	3	6	270	0.00	29.869 
08:10	34.7	34.7	34.7	93	32.9	2	6	338	0.00	29.869 
08:15	34.9	34.9	34.9	92	32.8	2	6	315	0.00	29.879 
08:20	34.9	34.9	34.9	92	32.8	2	5	248	0.00	29.879 
08:25	34.9	34.9	34.9	92	32.8	2	4	270	0.00	29.879 
08:30	34.9	34.9	34.9	92	32.8	2	7	248	0.00	29.909 
08:35	34.9	34.9	34.9	92	32.8	2	5	270	0.00	29.909 
08:40	34.9	34.9	34.9	92	32.8	2	5	270	0.00	29.909 
08:45	34.9	34.9	34.9	92	32.8	1	4	270	0.00	29.909 
08:50	34.9	34.9	34.9	91	32.5	2	6	270	0.00	29.909 
08:55	34.9	34.9	34.9	92	32.8	2	4	292	0.00	29.909 
09:00	34.9	34.9	34.9	91	32.5	2	5	270	0.00	29.896 
09:05	34.9	34.9	34.9	90	32.3	2	5	248	0.00	29.896 
09:10	34.9	34.9	34.9	90	32.3	2	5	270	0.00	29.896 
09:15	34.9	34.9	34.9	90	32.3	2	5	248	0.00	29.905 
09:20	34.9	34.9	34.9	89	32.0	2	5	270	0.00	29.905 
09:25	34.9	34.9	34.9	89	32.0	1	5	248	0.00	29.905 
09:30	34.9	34.9	34.9	88	31.7	2	5	315	0.00	29.913 
09:35	34.9	34.9	34.9	88	31.7	1	3	315	0.00	29.913 
09:40	34.9	34.9	34.9	88	31.7	1	4	248	0.00	29.913 
09:45	34.7	34.7	34.7	88	31.5	2	5	270	0.00	29.927 
09:50	34.7	34.7	34.7	88	31.5	1	3	270	0.00	29.927 
09:55	34.7	34.7	34.7	88	31.5	1	4	248	0.00	29.927 
10:00	34.7	34.7	34.7	88	31.5	1	2	248	0.00	29.933 
10:05	34.7	34.7	34.7	88	31.5	2	4	315	0.00	29.933 
10:10	34.7	34.7	34.7	88	31.5	1	5	270	0.00	29.933 
10:15	34.7	34.7	34.7	88	31.5	2	5	270	0.00	29.905 
10:20	34.7	34.7	34.7	88	31.5	2	5	315	0.00	29.905 
10:25	34.6	34.6	34.6	88	31.4	2	4	315	0.00	29.905 
10:30	34.6	34.6	34.6	88	31.4	2	4	315	0.00	29.913 
10:35	34.6	34.6	34.6	88	31.4	2	4	270	0.00	29.913 
10:40	34.7	34.7	34.7	88	31.5	2	4	270	0.00	29.913 
10:45	34.7	34.7	34.7	88	31.5	2	7	270	0.00	29.922 
10:50	34.7	34.7	34.7	88	31.5	2	3	292	0.00	29.922 
10:55	34.9	34.9	34.9	88	31.7	1	5	315	0.00	29.922 
11:00	34.7	34.7	34.7	88	31.5	2	4	315	0.00	29.929 
11:05	34.9	34.9	34.9	88	31.7	1	3	270	0.00	29.929 
11:10	34.9	34.9	34.9	88	31.7	1	3	315	0.00	29.929 
11:15	34.9	34.9	34.9	88	31.7	2	6	315	0.00	29.913 
11:20	34.9	34.9	34.9	88	31.7	2	5	315	0.00	29.913 
11:25	35.0	35.0	35.0	88	31.8	2	6	270	0.00	29.913 
11:30	35.0	35.0	35.0	88	31.8	1	4	315	0.00	29.921 
11:35	35.2	35.2	35.2	88	32.0	1	4	248	0.00	29.921 
11:40	35.2	35.2	35.2	88	32.0	2	5	315	0.00	29.921 
11:45	35.2	35.2	35.2	88	32.0	2	6	315	0.00	29.924 
11:50	35.2	35.2	35.2	87	31.7	2	4	315	0.00	29.924 
11:55	35.2	35.2	35.2	88	32.0	1	3	270	0.00	29.924 
12:00	35.2	35.2	35.2	88	32.0	3	7	0	0.00	29.922 
12:05	35.0	35.0	35.0	88	31.8	3	6	292	0.00	29.922 
12:10	35.2	35.2	35.2	88	32.0	2	6	248	0.00	29.922 
12:15	35.3	35.3	35.3	88	32.1	2	5	248	0.00	29.929 
12:20	35.2	35.2	35.2	88	32.0	3	5	292	0.00	29.929 
12:25	35.5	35.5	35.5	89	32.6	2	5	292	0.00	29.929 
12:30	35.5	35.5	35.5	88	32.3	2	6	270	0.00	29.927 
12:35	35.5	35.5	35.5	88	32.3	3	6	315	0.00	29.927 
12:40	35.5	35.5	35.5	87	32.0	3	9	270	0.00	29.927 
12:45	35.6	35.6	35.6	87	32.1	2	5	270	0.00	29.928 
12:50	35.6	35.6	35.6	87	32.1	2	6	292	0.00	29.928 
12:55	35.6	35.6	35.6	86	31.8	3	9	292	0.00	29.928 
13:00	35.5	35.5	35.5	86	31.7	3	6	315	0.00	29.925 
13:05	35.5	35.5	35.5	85	31.4	3	8	315	0.00	29.925 
13:10	35.6	35.6	35.6	85	31.5	2	7	338	0.00	29.925 
13:15	35.5	35.5	35.5	85	31.4	3	6	315	0.00	29.916 
13:20	35.3	35.3	35.3	85	31.2	3	9	292	0.00	29.916 
13:25	35.3	35.3	35.3	86	31.5	3	9	315	0.00	29.916 
13:30	35.6	35.6	35.6	86	31.8	3	5	315	0.00	29.900 
13:35	36.0	36.0	36.0	86	32.2	3	8	338	0.00	29.900 
13:40	36.0	36.0	36.0	84	31.6	3	9	315	0.00	29.900 
13:45	36.0	36.0	36.0	84	31.6	2	6	315	0.00	29.899 
13:50	36.0	36.0	36.0	84	31.6	2	8	270	0.00	29.899 
13:55	35.9	35.9	35.9	84	31.5	3	6	292	0.00	29.899 
14:00	35.8	35.8	35.8	84	31.4	3	7	315	0.00	29.900 
14:05	35.5	35.5	35.5	83	30.9	3	10	315	0.00	29.900 
14:10	35.5	35.5	35.5	84	31.2	2	7	315	0.00	29.900 
14:15	35.6	35.6	35.6	84	31.3	2	6	292	0.00	29.902 
14:20	35.8	35.8	35.8	84	31.4	2	5	315	0.00	29.902 
14:25	35.8	35.8	35.8	83	31.2	2	6	270	0.00	29.902 
14:30	35.6	35.6	35.6	83	31.0	3	7	315	0.00	29.900 
14:35	35.6	35.6	35.6	82	30.7	3	7	315	0.00	29.900 
14:40	35.5	35.5	35.5	82	30.6	3	9	315	0.00	29.900 
14:45	35.6	35.6	35.6	82	30.7	2	5	338	0.00	29.902 
14:50	35.6	35.6	35.6	82	30.7	2	9	270	0.00	29.902 
14:55	35.6	35.6	35.6	82	30.7	2	6	338	0.00	29.902 
15:00	35.8	35.8	35.8	82	30.9	1	4	338	0.00	29.908 
15:05	35.8	35.8	35.8	82	30.9	2	5	270	0.00	29.908 
15:10	35.8	35.8	35.8	82	30.9	2	6	315	0.00	29.908 
15:15	35.8	35.8	35.8	82	30.9	1	4	270	0.00	29.921 
15:20	35.8	35.8	35.8	81	30.6	2	6	292	0.00	29.921 
15:25	35.8	35.8	35.8	81	30.6	2	7	270	0.00	29.921 
15:30	35.6	35.6	35.6	81	30.4	3	6	292	0.00	29.934 
15:35	35.8	35.8	35.8	81	30.6	2	9	315	0.00	29.934 
15:40	35.8	35.8	35.8	81	30.6	2	6	315	0.00	29.934 
15:45	35.8	35.8	35.8	80	30.2	2	6	315	0.00	29.937 
15:50	35.8	35.8	35.8	81	30.6	1	3	338	0.00	29.937 
15:55	35.9	35.9	35.9	81	30.6	2	4	270	0.00	29.937 
16:00	35.8	35.8	35.8	81	30.6	1	5	315	0.00	29.940 
16:05	35.6	35.6	35.6	81	30.4	2	4	270	0.00	29.940 
16:10	35.6	35.6	35.6	81	30.4	2	6	292	0.00	29.940 
16:15	35.6	35.6	35.6	81	30.4	3	10	315	0.00	29.939 
16:20	35.6	35.6	35.6	81	30.4	2	4	270	0.00	29.939 
16:25	35.6	35.6	35.6	81	30.4	2	4	338	0.00	29.939 
16:30	35.6	35.6	35.6	81	30.4	2	8	315	0.00	29.943 
16:35	35.6	35.6	35.6	81	30.4	2	7	338	0.00	29.943 
16:40	35.5	35.5	35.5	80	30.0	2	5	315	0.00	29.943 
16:45	35.5	35.5	35.5	80	30.0	2	7	292	0.00	29.949 
16:50	35.5	35.5	35.5	80	30.0	2	5	270	0.00	29.949 
16:55	35.5	35.5	35.5	80	30.0	2	5	338	0.00	29.949 
17:00	35.5	35.5	35.5	80	30.0	2	5	292	0.00	29.950 
17:05	35.5	35.5	35.5	79	29.6	3	9	315	0.00	29.950 
17:10	35.5	35.5	35.5	79	29.6	3	6	270	0.00	29.950 
17:15	35.3	35.3	35.3	78	29.1	3	6	338	0.00	29.947 
17:20	35.3	35.3	35.3	79	29.4	2	6	315	0.00	29.947 
17:25	35.2	35.2	35.2	79	29.4	3	10	270	0.00	29.947 
17:30	35.2	35.2	35.2	78	29.0	3	7	292	0.00	29.941 
17:35	35.0	35.0	35.0	78	28.8	2	4	292	0.00	29.941 
17:40	35.0	31.5	35.0	78	28.8	4	10	315	0.00	29.941 
17:45	34.9	34.9	34.9	78	28.7	3	7	270	0.00	29.940 
17:50	34.9	34.9	34.9	78	28.7	3	7	292	0.00	29.940 
17:55	34.7	34.7	34.7	79	28.9	3	7	315	0.00	29.940 
18:00	34.7	34.7	34.7	79	28.9	3	9	292	0.00	29.939 
18:05	34.7	34.7	34.7	78	28.6	3	6	315	0.00	29.939 
18:10	34.7	34.7	34.7	78	28.6	3	10	338	0.00	29.939 
18:15	34.7	34.7	34.7	78	28.6	3	9	338	0.00	29.953 
18:20	34.7	34.7	34.7	78	28.6	3	7	270	0.00	29.953 
18:25	34.6	34.6	34.6	78	28.5	3	7	338	0.00	29.953 
18:30	34.6	31.1	34.6	77	28.1	4	11	315	0.00	29.971 
18:35	34.6	34.6	34.6	77	28.1	3	10	338	0.00	29.971 
18:40	34.6	34.6	34.6	77	28.1	1	5	292	0.00	29.971 
18:45	34.4	34.4	34.4	77	27.9	2	6	270	0.00	29.986 
18:50	34.4	34.4	34.4	77	27.9	3	6	338	0.00	29.986 
18:55	34.3	34.3	34.3	78	28.2	3	9	315	0.00	29.986 
19:00	34.1	34.1	34.1	78	28.0	3	10	248	0.00	29.989 
19:05	34.1	34.1	34.1	79	28.3	2	6	292	0.00	29.989 
19:10	34.0	34.0	34.0	79	28.2	3	7	315	0.00	29.989 
19:15	34.0	34.0	34.0	79	28.2	3	12	292	0.00	29.986 
19:20	34.0	34.0	34.0	78	27.9	3	7	292	0.00	29.986 
19:25	33.8	33.8	33.8	78	27.7	2	7	315	0.00	29.986 
19:30	33.8	33.8	33.8	78	27.7	3	8	315	0.00	29.985 
19:35	33.8	33.8	33.8	79	28.0	2	6	270	0.00	29.985 
19:40	33.7	33.7	33.7	79	27.9	3	6	292	0.00	29.985 
19:45	33.7	30.0	33.7	78	27.6	4	9	270	0.00	29.971 
19:50	33.7	33.7	33.7	78	27.6	3	7	292	0.00	29.971 
19:55	33.7	33.7	33.7	78	27.6	3	10	315	0.00	29.971 
20:00	33.7	33.7	33.7	78	27.6	3	6	292	0.00	29.970 
20:05	33.7	33.7	33.7	78	27.6	3	7	315	0.00	29.970 
20:10	33.7	33.7	33.7	78	27.6	3	9	292	0.00	29.970 
20:15	33.7	33.7	33.7	78	27.6	3	9	315	0.00	29.973 
20:20	33.7	33.7	33.7	79	27.9	3	10	270	0.00	29.973 
20:25	33.5	33.5	33.5	79	27.7	2	4	315	0.00	29.973 
20:30	33.5	33.5	33.5	80	28.0	2	5	338	0.00	29.973 
20:35	33.5	33.5	33.5	80	28.0	2	4	315	0.00	29.973 
20:40	33.4	33.4	33.4	81	28.2	1	4	292	0.00	29.973 
20:45	33.4	33.4	33.4	81	28.2	2	5	270	0.00	29.970 
20:50	33.4	33.4	33.4	81	28.2	2	7	270	0.00	29.970 
20:55	33.4	33.4	33.4	81	28.2	2	4	315	0.00	29.970 
21:00	33.4	33.4	33.4	81	28.2	2	6	338	0.00	29.969 
21:05	33.4	33.4	33.4	81	28.2	2	6	270	0.00	29.969 
21:10	33.4	33.4	33.4	81	28.2	2	9	315	0.00	29.969 
21:15	33.4	33.4	33.4	80	27.9	3	6	315	0.00	29.953 
21:20	33.4	33.4	33.4	80	27.9	2	6	338	0.00	29.953 
21:25	33.4	29.7	33.4	80	27.9	4	9	315	0.00	29.953 
21:30	33.4	29.7	33.4	80	27.9	4	9	315	0.00	29.948 
21:35	33.4	33.4	33.4	79	27.6	3	9	315	0.00	29.948 
21:40	33.4	33.4	33.4	79	27.6	3	10	270	0.00	29.948 
21:45	33.5	33.5	33.5	80	28.0	2	7	315	0.00	29.953 
21:50	33.4	33.4	33.4	80	27.9	1	4	338	0.00	29.953 
21:55	33.4	33.4	33.4	80	27.9	3	9	292	0.00	29.953 
22:00	33.4	33.4	33.4	80	27.9	2	10	270	0.00	29.953 
22:05	33.4	33.4	33.4	80	27.9	3	9	270	0.00	29.953 
22:10	33.4	33.4	33.4	80	27.9	2	6	315	0.00	29.953 
22:15	33.4	33.4	33.4	80	27.9	3	7	315	0.00	29.955 
22:20	33.5	33.5	33.5	80	28.0	3	12	315	0.00	29.955 
22:25	33.5	33.5	33.5	80	28.0	2	6	315	0.00	29.955 
22:30	33.5	33.5	33.5	80	28.0	3	9	292	0.00	29.956 
22:35	33.5	33.5	33.5	80	28.0	2	5	315	0.00	29.956 
22:40	33.5	33.5	33.5	80	28.0	1	6	292	0.00	29.956 
22:45	33.4	33.4	33.4	80	27.9	2	5	292	0.00	29.956 
22:50	33.4	33.4	33.4	80	27.9	2	6	270	0.00	29.956 
22:55	33.4	33.4	33.4	80	27.9	2	9	292	0.00	29.956 
23:00	33.4	33.4	33.4	80	27.9	1	5	338	0.00	29.955 
23:05	33.5	29.8	33.5	78	27.4	4	9	270	0.00	29.955 
23:10	33.7	30.0	33.7	75	26.6	4	11	270	0.00	29.955 
23:15	33.7	33.7	33.7	75	26.6	2	7	315	0.00	29.956 
23:20	33.7	33.7	33.7	74	26.3	2	11	315	0.00	29.956 
23:25	33.7	33.7	33.7	74	26.3	2	4	315	0.00	29.956 
23:30	33.5	33.5	33.5	74	26.1	2	6	315	0.00	29.958 
23:35	33.5	33.5	33.5	74	26.1	2	6	315	0.00	29.958 
23:40	33.5	33.5	33.5	73	25.8	3	9	315	0.00	29.958 
23:45	33.7	33.7	33.7	74	26.3	2	5	315	0.00	29.957 
23:50	33.7	33.7	33.7	74	26.3	3	6	315	0.00	29.957 
23:55	33.7	33.7	33.7	75	26.6	3	7	248	0.00	29.957 

CoCoRaHS
IN-AL-39
A2 Web Hosting
Creative Commons License
GoDaddy
search engine by freefind advanced

loaded 2018-11-15 16:55:05 • last modified 2010-11-18 10:43:29
Privacy PolicyDisclaimer
• wx.awcolley.com is powered by PmWiki v.2002016 •
• all content (unless otherwise noted) © 2018 A W Colley